MST,Max TemperatureF,Mean TemperatureF,Min TemperatureF,Max Dew PointF,MeanDew PointF,Min DewpointF,Max Humidity, Mean Humidity, Min Humidity, Max Sea Level PressureIn, Mean Sea Level PressureIn, Min Sea Level PressureIn, Max VisibilityMiles, Mean VisibilityMiles, Min VisibilityMiles, Max Wind SpeedMPH, Mean Wind SpeedMPH, Max Gust SpeedMPH,PrecipitationIn, CloudCover, Events, WindDirDegrees
2013-1-1,32,24,15,25,17,8,84,67,50,30.23,30.11,30.00,10,5,0,37,14,46,T,6,Fog-Snow,307
2013-1-2,28,20,11,19,10,1,88,62,35,30.40,30.23,30.08,10,7,1,38,18,48,T,2,Snow,328
2013-1-3,37,24,10,18,4,-4,58,42,25,30.39,30.28,30.18,10,10,10,12,5,12,0.00,0,,229
2013-1-4,43,31,18,16,9,3,55,42,28,30.19,30.13,30.05,10,10,10,16,6,20,0.00,0,,302
2013-1-5,36,28,19,20,13,8,68,55,41,30.31,30.25,30.14,10,10,10,21,8,26,0.00,0,,257
2013-1-6,48,31,12,18,9,0,61,41,21,30.16,29.96,29.86,10,10,10,17,4,20,0.00,1,,258
2013-1-7,37,28,19,20,15,8,68,54,39,30.00,29.87,29.69,10,10,10,13,4,14,0.00,1,,229
2013-1-8,44,33,22,20,16,12,63,46,29,30.12,29.93,29.70,10,10,10,28,8,40,0.00,3,,278
2013-1-9,54,39,23,29,18,6,65,40,15,30.09,29.93,29.71,10,10,10,30,9,36,0.00,0,,170
2013-1-10,55,37,19,25,19,13,100,62,23,29.71,29.51,29.42,10,7,0,26,12,36,0.00,1,Fog,326
2013-1-11,19,11,2,16,2,-3,91,84,76,30.07,29.66,29.50,10,3,1,44,30,59,T,8,Snow,343
2013-1-12,9,5,1,3,0,-4,87,78,69,30.26,30.08,29.83,10,5,1,36,9,44,T,8,Snow,318
2013-1-13,13,6,-1,3,-1,-7,88,75,61,30.31,30.16,29.98,10,8,2,12,5,15,T,6,Snow,275
2013-1-14,18,9,0,0,-5,-10,69,57,45,30.32,30.21,30.12,10,10,10,12,5,12,0.00,3,,233
2013-1-15,40,27,14,28,20,0,92,68,43,30.13,30.04,29.91,10,5,1,25,5,38,0.09,8,Snow,189
2013-1-16,43,33,23,22,18,13,74,54,33,30.36,30.21,30.08,10,10,10,21,6,25,0.00,0,,260
2013-1-17,42,31,20,25,16,11,61,48,35,30.41,30.28,30.07,10,10,10,14,6,16,0.00,0,,226
2013-1-18,52,42,32,26,13,5,49,34,19,30.06,29.96,29.89,10,10,10,20,4,24,0.00,1,,155
2013-1-19,43,34,24,22,15,9,68,49,29,30.21,30.14,29.99,10,10,10,20,6,28,0.00,0,,155
2013-1-20,41,29,17,18,15,7,91,59,27,30.46,30.32,30.08,10,10,10,39,11,52,0.00,6,,358
2013-1-21,42,28,14,19,14,10,92,63,34,30.32,30.16,30.04,10,9,1,21,5,24,0.00,2,,249
2013-1-22,46,35,24,14,10,6,46,36,25,30.12,30.07,30.00,10,10,10,12,5,15,0.00,0,,191
2013-1-23,40,33,26,19,13,5,68,46,23,30.17,30.07,29.96,10,10,10,14,3,18,0.00,0,,192
2013-1-24,56,41,25,23,16,7,75,47,19,30.14,29.96,29.84,10,10,10,24,4,28,0.00,0,,256
2013-1-25,49,36,23,25,19,15,75,52,29,30.14,30.05,29.90,10,10,10,12,6,15,0.00,0,,210
2013-1-26,52,39,26,26,22,18,68,50,32,29.93,29.82,29.66,10,10,10,15,6,18,0.00,0,,207
2013-1-27,40,33,26,30,27,22,100,76,52,29.83,29.73,29.60,10,5,0,25,11,33,0.17,7,Fog-Snow,340
2013-1-28,26,16,6,25,20,5,96,79,62,29.87,29.79,29.74,10,7,2,18,8,24,0.03,7,Snow,334
2013-1-29,24,12,-1,18,6,-4,88,69,49,30.21,29.93,29.77,10,5,1,39,16,48,T,5,Snow,338
2013-1-30,31,14,-4,27,18,-8,92,76,59,30.09,29.86,29.74,10,3,0,32,13,40,0.07,8,Fog-Snow,334
2013-1-31,34,19,4,22,10,0,92,75,58,30.28,30.05,29.87,10,4,0,31,9,37,0.12,8,Fog-Snow,349